Time;durP1;ratioP1;P1;durP2;ratioP2;P2;SDS_P1;SDS_P2;PMS_P1;PMS_P2;Temp;Humidity;BMP_temperature;BMP_pressure;BME280_temperature;BME280_humidity;BME280_pressure;Samples;Min_cycle;Max_cycle;Signal;HPM_P1;HPM_P2
2021/06/27 00:01:17;;;;;;;26.30;19.42;;;16.60;99.90;;;;;;5053222;28;20080;-62
2021/06/27 00:03:43;;;;;;;31.83;18.83;;;16.50;99.90;;;;;;5052801;28;20068;-61
2021/06/27 00:06:10;;;;;;;28.38;19.15;;;16.50;99.90;;;;;;5052966;28;20044;-61
2021/06/27 00:08:37;;;;;;;29.27;20.67;;;16.50;99.90;;;;;;5052998;28;20456;-61
2021/06/27 00:11:05;;;;;;;26.75;18.45;;;16.50;99.90;;;;;;5052932;28;20128;-60
2021/06/27 00:13:31;;;;;;;27.83;18.48;;;16.50;99.90;;;;;;5053101;28;20049;-61
2021/06/27 00:15:58;;;;;;;32.58;20.67;;;16.50;99.90;;;;;;5052950;28;20075;-61
2021/06/27 00:18:26;;;;;;;29.65;18.48;;;16.40;99.90;;;;;;5053044;28;20041;-61
2021/06/27 00:20:56;;;;;;;26.98;18.83;;;16.50;99.90;;;;;;5052768;28;20118;-61
2021/06/27 00:23:24;;;;;;;24.80;18.10;;;16.40;99.90;;;;;;5052749;28;20123;-61
2021/06/27 00:25:51;;;;;;;25.55;18.05;;;16.40;99.90;;;;;;5052680;28;20048;-61
2021/06/27 00:28:18;;;;;;;28.88;19.08;;;16.40;99.90;;;;;;5052683;28;20068;-61
2021/06/27 00:30:45;;;;;;;26.10;18.60;;;16.40;99.90;;;;;;5052449;28;20037;-59
2021/06/27 00:33:11;;;;;;;28.85;19.88;;;16.40;99.90;;;;;;5052649;28;20063;-60
2021/06/27 00:35:38;;;;;;;27.25;18.48;;;16.40;99.90;;;;;;5052586;28;20041;-59
2021/06/27 00:38:05;;;;;;;23.35;16.73;;;16.40;99.90;;;;;;5052414;28;20055;-60
2021/06/27 00:40:33;;;;;;;28.48;18.48;;;16.30;99.90;;;;;;5052561;28;20049;-60
2021/06/27 00:43:01;;;;;;;25.30;18.48;;;16.30;99.90;;;;;;5052406;28;20390;-60
2021/06/27 00:45:29;;;;;;;27.52;18.27;;;16.10;99.90;;;;;;5052363;28;20076;-60
2021/06/27 00:47:58;;;;;;;24.52;17.02;;;16.20;99.90;;;;;;5052348;28;20403;-60
2021/06/27 00:50:49;;;;;;;28.73;18.70;;;16.20;99.90;;;;;;5052096;28;20402;-60
2021/06/27 00:53:15;;;;;;;27.95;18.05;;;16.20;99.90;;;;;;5029644;28;20518;-61
2021/06/27 00:55:42;;;;;;;29.70;19.35;;;16.20;99.90;;;;;;5030066;28;20056;-60
2021/06/27 00:58:09;;;;;;;25.85;18.60;;;16.20;99.90;;;;;;5029936;28;20463;-61
2021/06/27 01:00:39;;;;;;;28.63;18.98;;;16.20;99.90;;;;;;5029992;28;20042;-60
2021/06/27 01:03:06;;;;;;;28.80;19.10;;;16.10;99.90;;;;;;5029822;28;20057;-60
2021/06/27 01:05:36;;;;;;;30.42;19.10;;;16.10;99.90;;;;;;5029865;28;20041;-60
2021/06/27 01:08:02;;;;;;;26.52;18.50;;;16.10;99.90;;;;;;5030006;28;20103;-60
2021/06/27 01:10:28;;;;;;;31.30;19.60;;;16.00;99.90;;;;;;5029837;28;20038;-61
2021/06/27 01:12:55;;;;;;;32.83;19.98;;;16.00;99.90;;;;;;5029835;28;20045;-61
2021/06/27 01:15:21;;;;;;;29.83;19.00;;;16.00;99.90;;;;;;5029851;28;20451;-61
2021/06/27 01:17:49;;;;;;;28.95;18.70;;;16.10;99.90;;;;;;5029715;28;20048;-61
2021/06/27 01:20:26;;;;;;;26.48;18.98;;;16.00;99.90;;;;;;5029870;28;20391;-60
2021/06/27 01:22:53;;;;;;;31.20;20.55;;;16.00;99.90;;;;;;5029698;28;20081;-61
2021/06/27 01:25:25;;;;;;;23.77;18.42;;;16.00;99.90;;;;;;5029602;28;20048;-61
2021/06/27 01:27:52;;;;;;;28.50;19.67;;;15.90;99.90;;;;;;5029726;28;20495;-61
2021/06/27 01:30:19;;;;;;;28.42;19.25;;;15.90;99.90;;;;;;5041597;28;20083;-60
2021/06/27 01:32:47;;;;;;;28.60;19.40;;;15.90;99.90;;;;;;5051554;28;20038;-61
2021/06/27 01:35:19;;;;;;;30.88;19.10;;;15.90;99.90;;;;;;5051935;28;20127;-61
2021/06/27 01:37:46;;;;;;;30.48;19.92;;;15.90;99.90;;;;;;5051586;28;20044;-61
2021/06/27 01:40:16;;;;;;;33.00;20.67;;;15.90;99.90;;;;;;5051691;28;20103;-62
2021/06/27 01:42:42;;;;;;;32.20;20.80;;;15.90;99.90;;;;;;5051797;28;20152;-61
2021/06/27 01:45:22;;;;;;;29.27;19.02;;;15.80;99.90;;;;;;5051836;28;20115;-61
2021/06/27 01:47:56;;;;;;;36.33;22.45;;;15.90;99.90;;;;;;5051647;28;20045;-62
2021/06/27 01:50:23;;;;;;;33.67;21.92;;;15.80;99.90;;;;;;5051486;28;20049;-61
2021/06/27 01:52:50;;;;;;;32.67;21.00;;;15.80;99.90;;;;;;5051524;28;20073;-61
2021/06/27 01:55:15;;;;;;;34.40;20.83;;;15.80;99.90;;;;;;5051385;28;20056;-61
2021/06/27 01:57:41;;;;;;;30.90;20.42;;;15.80;99.90;;;;;;5051378;28;20044;-61
2021/06/27 02:00:09;;;;;;;34.67;21.63;;;15.80;99.90;;;;;;5051615;28;20124;-60
2021/06/27 02:02:35;;;;;;;32.42;21.05;;;15.80;99.90;;;;;;5051485;28;20068;-61
2021/06/27 02:05:05;;;;;;;31.48;20.55;;;15.80;99.90;;;;;;5053770;28;20533;-61
2021/06/27 02:07:31;;;;;;;31.17;20.48;;;15.80;99.90;;;;;;5055298;28;20045;-61
2021/06/27 02:09:57;;;;;;;31.67;20.75;;;15.70;99.90;;;;;;5055180;28;20102;-61
2021/06/27 02:12:22;;;;;;;26.90;18.98;;;15.80;99.90;;;;;;5054931;28;20048;-60
2021/06/27 02:14:48;;;;;;;28.85;19.63;;;15.80;99.90;;;;;;5055335;28;20049;-61
2021/06/27 02:17:14;;;;;;;34.45;20.65;;;15.80;99.90;;;;;;5055165;28;20119;-61
2021/06/27 02:19:40;;;;;;;32.90;21.33;;;15.70;99.90;;;;;;5054966;28;20048;-60
2021/06/27 02:22:06;;;;;;;30.35;19.95;;;15.70;99.90;;;;;;5054918;28;20048;-61
2021/06/27 02:24:33;;;;;;;33.65;21.15;;;15.70;99.90;;;;;;5054916;28;20075;-60
2021/06/27 02:27:00;;;;;;;32.97;20.88;;;15.60;99.90;;;;;;5055034;28;20080;-61
2021/06/27 02:29:27;;;;;;;25.67;18.67;;;15.70;99.90;;;;;;5054755;28;20056;-61
2021/06/27 02:31:54;;;;;;;33.53;20.23;;;15.70;99.90;;;;;;5054637;28;20490;-60
2021/06/27 02:34:21;;;;;;;32.45;20.92;;;15.70;99.90;;;;;;5054805;28;20387;-60
2021/06/27 02:36:48;;;;;;;32.80;20.50;;;15.70;99.90;;;;;;5054738;28;20052;-60
2021/06/27 02:39:14;;;;;;;32.08;20.95;;;15.70;99.90;;;;;;5054965;28;20045;-61
2021/06/27 02:41:41;;;;;;;33.38;20.58;;;15.70;99.90;;;;;;5054653;28;20067;-59
2021/06/27 02:44:07;;;;;;;34.22;20.77;;;15.70;99.90;;;;;;5054589;28;20139;-60
2021/06/27 02:46:33;;;;;;;34.17;20.17;;;15.80;99.90;;;;;;5054496;28;20045;-60
2021/06/27 02:49:05;;;;;;;33.60;20.75;;;15.70;99.90;;;;;;5054438;28;20140;-60
2021/06/27 02:51:30;;;;;;;35.15;21.55;;;15.70;99.90;;;;;;5054330;28;20398;-60
2021/06/27 02:53:56;;;;;;;32.65;20.00;;;15.70;99.90;;;;;;5054477;28;20049;-59
2021/06/27 02:56:22;;;;;;;29.50;19.98;;;15.70;99.90;;;;;;5054479;28;20044;-60
2021/06/27 02:58:51;;;;;;;31.13;20.10;;;15.70;99.90;;;;;;5054196;28;20479;-60
2021/06/27 03:01:18;;;;;;;36.33;20.38;;;15.70;99.90;;;;;;5054223;28;20072;-60
2021/06/27 03:03:50;;;;;;;31.05;20.15;;;15.60;99.90;;;;;;5054059;28;20049;-61
2021/06/27 03:06:17;;;;;;;32.53;20.50;;;15.60;99.90;;;;;;5052751;28;20040;-61
2021/06/27 03:08:43;;;;;;;31.63;20.45;;;15.60;99.90;;;;;;5053987;28;20043;-60
2021/06/27 03:11:10;;;;;;;29.52;19.17;;;15.60;99.90;;;;;;5054132;28;20049;-61
2021/06/27 03:13:39;;;;;;;31.23;19.95;;;15.60;99.90;;;;;;5053961;28;20498;-60
2021/06/27 03:16:06;;;;;;;;;;;15.60;99.90;;;;;;5053875;28;20044;-60
2021/06/27 03:18:32;;;;;;;29.98;19.38;;;15.50;99.90;;;;;;5053985;28;19924;-61
2021/06/27 03:20:58;;;;;;;33.25;20.35;;;15.60;99.90;;;;;;5054206;28;20037;-60
2021/06/27 03:23:25;;;;;;;30.73;20.13;;;15.50;99.90;;;;;;5054028;28;20415;-61
2021/06/27 03:25:52;;;;;;;34.33;21.30;;;15.50;99.90;;;;;;5054009;28;20045;-60
2021/06/27 03:28:19;;;;;;;35.00;21.17;;;15.50;99.90;;;;;;5053824;28;20147;-60
2021/06/27 03:30:45;;;;;;;34.97;20.80;;;15.50;99.90;;;;;;5053702;28;20096;-60
2021/06/27 03:33:12;;;;;;;32.65;20.88;;;15.50;99.90;;;;;;5053631;28;20041;-61
2021/06/27 03:35:37;;;;;;;33.30;21.42;;;15.50;99.90;;;;;;5053465;28;20398;-61
2021/06/27 03:38:13;;;;;;;39.45;21.23;;;15.50;99.90;;;;;;5053574;28;20044;-61
2021/06/27 03:40:41;;;;;;;32.55;21.13;;;15.50;99.90;;;;;;5053727;28;20124;-61
2021/06/27 03:43:08;;;;;;;34.20;20.45;;;15.50;99.90;;;;;;5053483;28;20143;-61
2021/06/27 03:45:34;;;;;;;35.63;22.33;;;15.50;99.90;;;;;;5053383;28;20132;-60
2021/06/27 03:48:00;;;;;;;34.92;22.17;;;15.50;99.90;;;;;;5053555;28;20910;-60
2021/06/27 03:50:26;;;;;;;39.13;22.30;;;15.50;99.90;;;;;;5053658;28;20160;-59
2021/06/27 03:52:52;;;;;;;33.47;20.98;;;15.50;99.90;;;;;;5053355;28;20136;-60
2021/06/27 03:55:19;;;;;;;34.05;20.40;;;15.60;99.90;;;;;;5053264;28;20119;-60
2021/06/27 03:57:48;;;;;;;32.97;20.35;;;15.50;99.90;;;;;;5053291;28;20063;-60
2021/06/27 04:00:15;;;;;;;35.35;20.58;;;15.50;99.90;;;;;;5053152;28;20475;-61
2021/06/27 04:02:42;;;;;;;35.42;20.45;;;15.50;99.90;;;;;;5053194;28;20060;-60
2021/06/27 04:05:09;;;;;;;33.15;20.02;;;15.50;99.90;;;;;;5053255;28;20406;-61
2021/06/27 04:07:36;;;;;;;35.20;20.42;;;15.60;99.90;;;;;;5053305;28;20048;-60
2021/06/27 04:10:03;;;;;;;31.67;20.13;;;15.60;99.90;;;;;;5053117;28;20774;-61
2021/06/27 04:12:29;;;;;;;31.58;20.48;;;15.60;99.90;;;;;;5053067;28;20041;-60
2021/06/27 04:14:55;;;;;;;33.85;20.55;;;15.60;99.90;;;;;;5052964;28;20060;-60
2021/06/27 04:17:22;;;;;;;31.42;19.10;;;15.70;99.90;;;;;;5053041;28;20064;-60
2021/06/27 04:19:49;;;;;;;33.60;18.77;;;15.70;99.90;;;;;;5052792;28;20037;-61
2021/06/27 04:22:15;;;;;;;28.45;17.65;;;15.70;99.90;;;;;;5052658;28;20071;-61
2021/06/27 04:24:41;;;;;;;30.85;19.58;;;15.70;99.90;;;;;;5052697;28;20103;-60
2021/06/27 04:27:07;;;;;;;33.72;19.65;;;15.80;99.90;;;;;;5051909;28;20056;-60
2021/06/27 04:29:33;;;;;;;31.85;19.60;;;15.80;99.90;;;;;;5052456;28;20057;-61
2021/06/27 04:31:59;;;;;;;28.55;18.73;;;15.80;99.90;;;;;;5052680;28;20468;-60
2021/06/27 04:34:25;;;;;;;32.72;18.98;;;15.80;99.90;;;;;;5052495;28;20524;-60
2021/06/27 04:36:51;;;;;;;29.60;18.63;;;15.90;99.90;;;;;;5052348;28;20037;-60
2021/06/27 04:39:17;;;;;;;31.98;19.30;;;16.00;99.90;;;;;;5052290;28;20041;-60
2021/06/27 04:41:44;;;;;;;26.83;18.58;;;16.00;99.90;;;;;;5052440;28;20051;-60
2021/06/27 04:44:11;;;;;;;28.08;18.35;;;16.00;99.90;;;;;;5052284;28;20103;-61
2021/06/27 04:46:38;;;;;;;31.30;18.15;;;16.10;99.90;;;;;;5052091;28;20040;-61
2021/06/27 04:49:05;;;;;;;26.67;19.02;;;16.20;99.90;;;;;;5052188;28;20045;-60
2021/06/27 04:51:31;;;;;;;25.08;18.30;;;16.20;99.90;;;;;;5052029;28;20091;-61
2021/06/27 04:53:57;;;;;;;23.02;16.88;;;16.20;99.90;;;;;;5050927;28;20469;-60
2021/06/27 04:56:23;;;;;;;25.60;16.10;;;16.30;99.90;;;;;;5052042;28;20045;-61
2021/06/27 04:58:49;;;;;;;26.52;16.80;;;16.30;99.90;;;;;;5052118;28;20471;-61
2021/06/27 05:01:14;;;;;;;28.50;18.23;;;16.40;99.90;;;;;;5051924;28;20051;-60
2021/06/27 05:03:40;;;;;;;25.08;16.98;;;16.50;99.90;;;;;;5051849;28;20057;-61
2021/06/27 05:06:06;;;;;;;23.42;16.83;;;16.50;99.90;;;;;;5052023;28;20052;-60
2021/06/27 05:08:31;;;;;;;21.13;15.80;;;16.50;99.90;;;;;;5051927;28;20040;-60
2021/06/27 05:10:58;;;;;;;23.85;15.77;;;16.60;99.90;;;;;;5051927;28;20047;-61
2021/06/27 05:13:25;;;;;;;22.77;15.45;;;16.60;99.90;;;;;;5052271;28;20041;-61
2021/06/27 05:15:51;;;;;;;22.33;15.90;;;16.70;99.90;;;;;;5052253;28;20048;-61
2021/06/27 05:18:17;;;;;;;22.88;15.30;;;16.80;99.90;;;;;;5051993;28;20041;-62
2021/06/27 05:20:43;;;;;;;20.58;14.90;;;16.90;99.90;;;;;;5051791;28;20048;-61
2021/06/27 05:23:08;;;;;;;21.33;15.95;;;16.90;99.90;;;;;;5051895;28;20048;-60
2021/06/27 05:25:34;;;;;;;21.23;15.10;;;17.00;99.90;;;;;;5051681;28;20414;-60
2021/06/27 05:28:00;;;;;;;23.35;14.85;;;17.10;99.90;;;;;;5051674;28;20049;-61
2021/06/27 05:30:27;;;;;;;20.13;14.65;;;17.10;99.90;;;;;;5051701;28;20045;-61
2021/06/27 05:32:53;;;;;;;20.25;14.82;;;17.20;99.90;;;;;;5051746;28;20048;-61
2021/06/27 05:35:19;;;;;;;18.75;13.77;;;17.20;99.90;;;;;;5051505;28;20502;-61
2021/06/27 05:37:45;;;;;;;18.60;13.45;;;17.30;99.90;;;;;;5052227;28;20045;-61
2021/06/27 05:40:12;;;;;;;18.90;14.25;;;17.40;99.90;;;;;;5055799;28;20478;-61
2021/06/27 05:42:38;;;;;;;25.67;14.77;;;17.40;99.90;;;;;;5056016;28;20090;-61
2021/06/27 05:45:05;;;;;;;18.45;14.15;;;17.50;99.90;;;;;;5055840;28;20041;-61
2021/06/27 05:47:31;;;;;;;19.38;13.57;;;17.50;99.90;;;;;;5055773;28;20044;-60
2021/06/27 05:49:57;;;;;;;19.55;13.90;;;17.60;99.90;;;;;;5054334;28;20387;-61
2021/06/27 05:52:22;;;;;;;18.13;13.40;;;17.60;99.90;;;;;;5055456;28;20078;-59
2021/06/27 05:54:48;;;;;;;16.17;12.80;;;17.70;99.90;;;;;;5055396;28;20053;-60
2021/06/27 05:57:14;;;;;;;16.10;12.50;;;17.80;99.90;;;;;;5055515;28;20041;-60
2021/06/27 05:59:40;;;;;;;20.55;13.30;;;18.00;99.90;;;;;;5055581;28;20503;-61
2021/06/27 06:02:06;;;;;;;18.25;11.73;;;18.00;99.90;;;;;;5055431;28;20045;-60
2021/06/27 06:04:31;;;;;;;16.25;12.63;;;18.10;99.90;;;;;;5055269;28;20049;-61
2021/06/27 06:06:57;;;;;;;15.80;12.45;;;18.20;99.90;;;;;;5054134;28;20112;-60
2021/06/27 06:09:23;;;;;;;16.45;12.48;;;18.20;99.90;;;;;;5055282;28;20052;-61
2021/06/27 06:11:48;;;;;;;15.48;12.63;;;18.30;99.90;;;;;;5055261;28;20045;-60
2021/06/27 06:14:14;;;;;;;21.02;12.35;;;18.40;99.90;;;;;;5055395;28;20049;-61
2021/06/27 06:16:45;;;;;;;14.32;11.77;;;18.40;99.90;;;;;;5055215;28;20045;-61
2021/06/27 06:19:12;;;;;;;15.15;12.07;;;18.40;99.90;;;;;;5055229;28;20060;-61
2021/06/27 06:21:38;;;;;;;18.45;13.43;;;18.60;99.90;;;;;;5055085;28;20048;-60
2021/06/27 06:24:05;;;;;;;17.42;12.00;;;18.60;99.90;;;;;;5055034;28;20044;-61
2021/06/27 06:26:30;;;;;;;15.90;11.10;;;18.70;99.90;;;;;;5054881;28;20040;-62
2021/06/27 06:28:56;;;;;;;13.40;11.40;;;18.90;99.90;;;;;;5054808;28;20049;-59
2021/06/27 06:31:22;;;;;;;14.88;11.05;;;19.10;99.90;;;;;;5054647;28;20372;-62
2021/06/27 06:33:48;;;;;;;13.00;10.93;;;19.20;99.90;;;;;;5054828;28;20052;-61
2021/06/27 06:36:14;;;;;;;13.73;11.40;;;19.30;99.90;;;;;;5054664;28;20489;-61
2021/06/27 06:38:39;;;;;;;13.10;9.75;;;19.50;99.90;;;;;;5054625;28;20601;-61
2021/06/27 06:41:05;;;;;;;15.70;11.18;;;19.70;99.90;;;;;;5057980;28;20123;-60
2021/06/27 06:43:31;;;;;;;12.38;11.07;;;19.80;99.90;;;;;;5074661;28;20044;-61
2021/06/27 06:45:57;;;;;;;14.95;10.18;;;19.80;99.90;;;;;;5074582;28;20151;-62
2021/06/27 06:48:23;;;;;;;13.90;11.75;;;20.00;99.90;;;;;;5074668;28;20040;-60
2021/06/27 06:50:49;;;;;;;15.98;11.43;;;19.80;99.90;;;;;;5073686;28;20050;-60
2021/06/27 06:53:14;;;;;;;14.85;11.35;;;19.70;99.90;;;;;;5068862;28;20052;-60
2021/06/27 06:55:40;;;;;;;13.63;9.70;;;19.80;99.90;;;;;;5054393;28;20123;-60
2021/06/27 06:58:06;;;;;;;12.95;10.45;;;20.00;99.90;;;;;;5054331;28;20040;-62
2021/06/27 07:00:32;;;;;;;14.57;11.40;;;20.10;99.90;;;;;;5054207;28;20086;-60
2021/06/27 07:02:57;;;;;;;17.52;12.20;;;20.30;99.90;;;;;;5054177;28;20052;-62
2021/06/27 07:05:23;;;;;;;15.88;11.35;;;20.30;99.90;;;;;;5054471;28;20064;-60
2021/06/27 07:07:49;;;;;;;16.77;11.48;;;20.50;99.90;;;;;;5054109;28;20045;-61
2021/06/27 07:10:15;;;;;;;19.77;12.15;;;20.70;99.90;;;;;;5054514;28;20048;-62
2021/06/27 07:12:41;;;;;;;20.10;12.82;;;20.70;99.90;;;;;;5054153;28;20479;-61
2021/06/27 07:15:08;;;;;;;15.07;11.95;;;20.80;99.90;;;;;;5053009;28;20041;-61
2021/06/27 07:17:33;;;;;;;14.32;12.15;;;20.70;99.90;;;;;;5053915;28;20494;-62
2021/06/27 07:19:59;;;;;;;13.57;11.23;;;20.90;99.90;;;;;;5053959;28;20072;-63
2021/06/27 07:22:25;;;;;;;17.17;12.15;;;21.20;99.90;;;;;;5053506;28;20049;-62
2021/06/27 07:24:50;;;;;;;13.93;11.20;;;21.30;99.90;;;;;;5054076;28;20088;-63
2021/06/27 07:27:16;;;;;;;13.50;11.65;;;21.30;99.90;;;;;;5053764;28;20037;-62
2021/06/27 07:29:42;;;;;;;17.35;12.73;;;21.50;99.90;;;;;;5053735;28;20037;-61
2021/06/27 07:32:08;;;;;;;16.17;12.45;;;21.50;99.90;;;;;;5053768;28;20053;-61
2021/06/27 07:34:34;;;;;;;14.30;10.88;;;21.90;99.90;;;;;;5055174;28;20044;-61
2021/06/27 07:37:03;;;;;;;13.63;10.48;;;22.20;99.90;;;;;;5070615;28;20036;-62
2021/06/27 07:39:28;;;;;;;13.60;11.48;;;22.60;99.90;;;;;;5054006;28;20045;-59
2021/06/27 07:41:54;;;;;;;12.38;9.60;;;22.40;99.90;;;;;;5052424;28;20540;-60
2021/06/27 07:44:20;;;;;;;14.20;11.27;;;22.80;99.90;;;;;;5052044;28;20052;-61
2021/06/27 07:46:45;;;;;;;12.00;9.80;;;23.10;99.90;;;;;;5053290;28;20521;-60
2021/06/27 07:49:11;;;;;;;11.52;10.10;;;23.20;99.90;;;;;;5053195;28;20094;-61
2021/06/27 07:51:37;;;;;;;11.52;10.20;;;23.40;99.90;;;;;;5053220;28;20437;-60
2021/06/27 07:54:02;;;;;;;11.48;10.30;;;23.60;99.90;;;;;;5053583;28;20049;-59
2021/06/27 07:56:28;;;;;;;13.93;12.07;;;23.50;99.90;;;;;;5053460;28;20119;-60
2021/06/27 07:58:54;;;;;;;12.77;11.25;;;23.40;99.90;;;;;;5052995;28;20041;-60
2021/06/27 08:01:22;;;;;;;14.63;11.85;;;23.50;99.90;;;;;;5052460;28;20122;-61
2021/06/27 08:03:48;;;;;;;;;;;23.50;99.90;;;;;;5053039;28;20060;-61
2021/06/27 08:06:14;;;;;;;13.90;12.43;;;23.40;99.90;;;;;;5052801;28;19962;-61
2021/06/27 08:08:39;;;;;;;13.73;11.93;;;23.20;99.90;;;;;;5053009;28;20052;-61
2021/06/27 08:11:05;;;;;;;14.75;12.57;;;23.30;99.90;;;;;;5052679;28;20438;-61
2021/06/27 08:13:31;;;;;;;15.13;12.05;;;23.30;99.90;;;;;;5052734;28;20064;-60
2021/06/27 08:15:58;;;;;;;12.52;11.20;;;23.40;99.90;;;;;;5052784;28;20475;-63
2021/06/27 08:18:24;;;;;;;13.77;10.73;;;23.60;99.90;;;;;;5051568;28;20043;-61
2021/06/27 08:20:50;;;;;;;11.90;10.13;;;24.00;99.90;;;;;;5052388;28;20128;-61
2021/06/27 08:23:16;;;;;;;13.10;10.57;;;24.30;99.90;;;;;;5052721;28;20045;-61
2021/06/27 08:25:42;;;;;;;13.35;11.52;;;24.20;99.90;;;;;;5052404;28;20055;-61
2021/06/27 08:28:08;;;;;;;13.60;10.10;;;24.00;99.90;;;;;;5052469;28;20048;-61
2021/06/27 08:30:34;;;;;;;14.98;10.27;;;24.30;99.90;;;;;;5052255;28;20041;-59
2021/06/27 08:33:00;;;;;;;11.15;9.95;;;24.70;99.90;;;;;;5052286;28;20076;-59
2021/06/27 08:35:26;;;;;;;15.77;10.55;;;24.80;99.90;;;;;;5052361;28;20503;-60
2021/06/27 08:37:52;;;;;;;14.98;8.35;;;24.80;99.90;;;;;;5052191;28;20045;-60
2021/06/27 08:40:19;;;;;;;11.65;9.63;;;25.20;99.90;;;;;;5052338;28;20103;-61
2021/06/27 08:42:45;;;;;;;10.98;9.48;;;25.40;99.90;;;;;;5052597;28;20049;-61
2021/06/27 08:45:13;;;;;;;10.77;9.63;;;25.60;99.90;;;;;;5052137;28;20045;-62
2021/06/27 08:47:40;;;;;;;11.20;9.40;;;25.90;99.90;;;;;;5052015;28;20045;-62
2021/06/27 08:50:11;;;;;;;13.30;9.50;;;25.70;99.90;;;;;;5052257;28;20107;-60
2021/06/27 08:52:37;;;;;;;12.00;9.20;;;26.00;99.90;;;;;;5052017;28;20535;-61
2021/06/27 08:55:04;;;;;;;10.07;8.85;;;26.00;99.90;;;;;;5051203;28;20041;-60
2021/06/27 08:57:30;;;;;;;13.98;11.85;;;25.70;99.90;;;;;;5052003;28;20044;-62
2021/06/27 08:59:58;;;;;;;10.00;9.00;;;25.80;99.90;;;;;;5052049;28;20540;-61
2021/06/27 09:02:23;;;;;;;9.60;8.55;;;25.80;99.90;;;;;;5066554;28;20048;-59
2021/06/27 09:04:49;;;;;;;11.20;9.15;;;25.90;99.90;;;;;;5071729;28;20059;-61
2021/06/27 09:07:44;;;;;;;8.90;8.00;;;26.00;99.90;;;;;;5072215;28;20048;-62
2021/06/27 09:10:16;;;;;;;9.77;7.72;;;26.50;99.90;;;;;;5038840;28;20048;-60
2021/06/27 09:12:58;;;;;;;9.13;8.15;;;26.90;99.90;;;;;;5058642;28;20036;-61
2021/06/27 09:15:36;;;;;;;10.07;9.05;;;27.20;99.90;;;;;;5071931;28;20036;-59
2021/06/27 09:18:07;;;;;;;11.13;8.38;;;27.00;99.90;;;;;;5071950;28;20090;-60
2021/06/27 09:20:33;;;;;;;11.68;9.07;;;26.90;99.90;;;;;;5056225;28;20071;-60
2021/06/27 09:22:59;;;;;;;8.93;7.82;;;27.10;99.90;;;;;;5051794;28;20103;-62
2021/06/27 09:25:30;;;;;;;10.27;9.27;;;27.40;99.90;;;;;;5061345;28;20040;-61
2021/06/27 09:28:03;;;;;;;12.20;8.82;;;27.10;99.90;;;;;;5071857;28;20036;-62
2021/06/27 09:30:34;;;;;;;9.75;8.10;;;27.20;99.90;;;;;;5054360;28;20036;-61
2021/06/27 09:33:03;;;;;;;12.48;10.32;;;27.60;99.90;;;;;;5051777;28;20055;-61
2021/06/27 09:35:39;;;;;;;14.40;10.00;;;27.10;99.90;;;;;;5051696;28;20047;-62
2021/06/27 09:38:20;;;;;;;8.82;7.93;;;27.10;99.90;;;;;;5058756;28;20040;-60
2021/06/27 09:40:46;;;;;;;10.13;8.35;;;27.20;99.90;;;;;;5071689;28;20261;-61
2021/06/27 09:43:12;;;;;;;11.85;9.65;;;27.70;99.90;;;;;;5071886;28;20075;-61
2021/06/27 09:45:49;;;;;;;10.95;9.77;;;27.60;99.90;;;;;;5071568;28;20471;-60
2021/06/27 09:48:16;;;;;;;13.23;9.73;;;27.10;99.90;;;;;;5071665;28;20090;-63
2021/06/27 09:50:42;;;;;;;12.55;8.65;;;26.90;99.90;;;;;;5071748;28;20097;-61
2021/06/27 09:53:30;;;;;;;8.70;7.72;;;27.20;99.90;;;;;;5059432;28;20132;-62
2021/06/27 09:55:56;;;;;;;11.57;7.80;;;27.70;99.90;;;;;;5058625;28;20060;-62
2021/06/27 09:58:22;;;;;;;9.73;7.68;;;27.90;99.90;;;;;;5051535;28;20067;-60
2021/06/27 10:00:48;;;;;;;9.75;7.38;;;28.10;99.90;;;;;;5051597;28;20505;-61
2021/06/27 10:03:13;;;;;;;8.48;7.57;;;28.60;99.90;;;;;;5051544;28;20071;-60
2021/06/27 10:05:39;;;;;;;9.98;8.98;;;28.50;99.90;;;;;;5051567;28;20060;-61
2021/06/27 10:08:05;;;;;;;11.38;9.13;;;27.70;99.90;;;;;;5051505;28;20037;-62
2021/06/27 10:10:31;;;;;;;9.98;8.95;;;27.80;99.90;;;;;;5051289;28;20037;-63
2021/06/27 10:12:56;;;;;;;10.88;9.07;;;27.80;99.90;;;;;;5059563;28;20040;-63
2021/06/27 10:15:22;;;;;;;8.00;7.20;;;27.80;99.90;;;;;;5071165;28;20540;-60
2021/06/27 10:17:48;;;;;;;7.70;7.00;;;27.60;99.90;;;;;;5071166;28;20052;-62
2021/06/27 10:20:15;;;;;;;14.27;7.40;;;28.10;99.90;;;;;;5055927;28;20063;-61
2021/06/27 10:22:42;;;;;;;8.60;7.80;;;27.80;99.90;;;;;;5051298;28;20041;-64
2021/06/27 10:25:14;;;;;;;13.48;7.35;;;27.80;99.90;;;;;;5052162;28;20087;-61
2021/06/27 10:27:41;;;;;;;10.13;8.93;;;27.80;99.90;;;;;;5054756;28;20128;-64
2021/06/27 10:30:11;;;;;;;10.13;7.72;;;27.90;99.90;;;;;;5055090;28;20041;-62
2021/06/27 10:32:42;;;;;;;8.68;7.70;;;27.70;99.90;;;;;;5054923;28;20033;-62
2021/06/27 10:35:11;;;;;;;11.30;8.55;;;27.50;99.90;;;;;;5068869;28;20049;-61
2021/06/27 10:37:39;;;;;;;10.38;8.98;;;27.90;99.90;;;;;;5055183;28;20045;-62
2021/06/27 10:40:11;;;;;;;13.48;10.70;;;27.40;99.90;;;;;;5054659;28;20041;-60
2021/06/27 10:42:49;;;;;;;12.35;11.00;;;27.60;99.90;;;;;;5053017;28;20076;-62
2021/06/27 10:45:23;;;;;;;12.03;8.60;;;27.80;99.90;;;;;;5059221;28;20386;-61
2021/06/27 10:47:49;;;;;;;8.55;7.75;;;27.50;99.90;;;;;;5056418;28;20037;-61
2021/06/27 10:50:17;;;;;;;9.10;8.20;;;27.60;99.90;;;;;;5055935;28;20047;-63
2021/06/27 10:52:54;;;;;;;9.27;7.93;;;27.60;99.90;;;;;;5055356;28;20474;-61
2021/06/27 10:55:29;;;;;;;10.07;8.18;;;27.70;99.90;;;;;;5055156;28;20130;-61
2021/06/27 10:58:03;;;;;;;7.32;6.47;;;27.40;99.90;;;;;;5054440;28;20352;-62
2021/06/27 11:01:00;;;;;;;9.30;8.35;;;27.50;99.90;;;;;;5054277;28;20087;-62
2021/06/27 11:03:30;;;;;;;7.75;6.95;;;27.20;99.90;;;;;;5031891;28;20084;-62
2021/06/27 11:05:58;;;;;;;8.77;7.85;;;27.30;99.90;;;;;;5032085;28;20514;-62
2021/06/27 11:08:36;;;;;;;9.93;8.68;;;27.30;99.90;;;;;;5032113;28;20448;-61
2021/06/27 11:11:11;;;;;;;10.80;8.38;;;27.10;99.90;;;;;;5031907;28;20042;-61
2021/06/27 11:13:38;;;;;;;9.48;7.45;;;27.40;99.90;;;;;;4999087;28;20052;-64
2021/06/27 11:16:06;;;;;;;8.82;7.93;;;27.60;99.90;;;;;;5024128;28;20069;-62
2021/06/27 11:18:47;;;;;;;14.55;7.78;;;27.90;99.90;;;;;;5031851;28;20037;-61
2021/06/27 11:21:32;;;;;;;8.40;6.80;;;28.30;99.90;;;;;;5031876;28;20049;-60
2021/06/27 11:24:03;;;;;;;12.02;7.30;;;28.50;99.90;;;;;;5031239;28;20073;-62
2021/06/27 11:26:53;;;;;;;8.90;6.97;;;28.80;99.00;;;;;;5031484;28;20124;-61
2021/06/27 11:29:22;;;;;;;6.55;5.95;;;28.90;99.90;;;;;;5031437;28;20041;-62
2021/06/27 11:31:55;;;;;;;10.48;8.02;;;29.20;99.30;;;;;;5031585;28;20052;-62
2021/06/27 11:34:24;;;;;;;8.57;7.60;;;28.70;99.20;;;;;;5031513;28;20482;-62
2021/06/27 11:36:52;;;;;;;8.70;7.88;;;28.80;98.70;;;;;;5029280;28;20045;-62
2021/06/27 11:39:47;;;;;;;7.68;6.45;;;28.60;98.40;;;;;;5022771;28;20109;-61
2021/06/27 11:42:30;;;;;;;8.25;7.45;;;28.70;99.60;;;;;;5062163;28;20043;-62
2021/06/27 11:45:05;;;;;;;9.05;7.20;;;28.10;99.00;;;;;;5060844;28;20113;-62
2021/06/27 11:47:36;;;;;;;9.70;7.03;;;27.80;99.70;;;;;;5060994;28;20076;-62
2021/06/27 11:50:17;;;;;;;7.90;6.95;;;27.50;99.90;;;;;;5058658;28;20037;-57
2021/06/27 11:52:43;;;;;;;7.53;6.82;;;27.40;99.90;;;;;;5059283;28;20045;-57
2021/06/27 11:55:11;;;;;;;10.20;6.90;;;27.70;99.90;;;;;;5059115;28;20521;-60
2021/06/27 11:57:41;;;;;;;6.70;6.10;;;28.00;99.90;;;;;;5059251;28;20064;-59
2021/06/27 12:00:09;;;;;;;7.25;6.55;;;28.00;99.90;;;;;;5060264;28;20065;-61
2021/06/27 12:02:37;;;;;;;6.72;6.03;;;27.60;99.90;;;;;;5061843;28;20040;-61
2021/06/27 12:05:07;;;;;;;;;;;28.00;99.90;;;;;;5061887;28;20056;-62
2021/06/27 12:07:36;;;;;;;9.82;8.82;;;27.70;99.90;;;;;;5060653;28;19917;-61
2021/06/27 12:10:19;;;;;;;10.07;7.35;;;27.60;99.90;;;;;;5061698;28;20029;-61
2021/06/27 12:12:46;;;;;;;12.48;6.45;;;27.70;99.90;;;;;;5060578;28;20119;-61
2021/06/27 12:15:14;;;;;;;11.20;9.45;;;28.60;99.90;;;;;;5060474;28;20102;-62
2021/06/27 12:17:41;;;;;;;8.48;7.72;;;28.80;99.50;;;;;;5061805;28;20037;-63
2021/06/27 12:20:08;;;;;;;11.35;6.18;;;28.70;99.10;;;;;;5061984;28;20037;-62
2021/06/27 12:22:50;;;;;;;7.15;6.45;;;28.60;99.40;;;;;;5060348;28;20430;-62
2021/06/27 12:25:22;;;;;;;6.50;5.32;;;28.80;99.20;;;;;;5058595;28;20052;-62
2021/06/27 12:27:49;;;;;;;6.72;6.07;;;29.00;99.00;;;;;;5057350;28;20052;-61
2021/06/27 12:30:15;;;;;;;7.15;6.53;;;28.50;98.60;;;;;;5057479;28;20064;-62
2021/06/27 12:33:08;;;;;;;7.88;7.07;;;28.20;99.20;;;;;;5057354;28;20454;-62
2021/06/27 12:35:36;;;;;;;6.15;5.40;;;27.70;99.50;;;;;;5064206;28;20048;-62
2021/06/27 12:38:03;;;;;;;5.68;5.05;;;28.00;99.70;;;;;;5064757;28;20390;-61